createdAt,value
2023-03-04T00:02:24.674Z,14.60
2023-03-04T00:04:53.022Z,13.70
2023-03-04T00:07:21.188Z,13.00
2023-03-04T00:09:53.720Z,13.50
2023-03-04T00:12:22.865Z,13.30
2023-03-04T00:14:51.639Z,14.10
2023-03-04T00:17:25.572Z,13.10
2023-03-04T00:19:55.267Z,13.20
2023-03-04T00:22:24.117Z,12.70
2023-03-04T00:24:54.961Z,13.70
2023-03-04T00:27:23.945Z,12.80
2023-03-04T00:29:52.191Z,14.70
2023-03-04T00:32:21.241Z,13.50
2023-03-04T00:34:49.828Z,13.40
2023-03-04T00:37:17.997Z,13.70
2023-03-04T00:39:46.853Z,13.60
2023-03-04T00:42:16.815Z,14.10
2023-03-04T00:44:46.605Z,13.00
2023-03-04T00:47:14.962Z,13.50
2023-03-04T00:49:43.436Z,14.00
2023-03-04T00:52:11.680Z,13.10
2023-03-04T00:54:43.033Z,14.50
2023-03-04T00:57:11.373Z,14.60
2023-03-04T00:59:40.897Z,15.40
2023-03-04T01:02:11.427Z,13.40
2023-03-04T01:04:42.047Z,14.40
2023-03-04T01:07:11.454Z,14.00
2023-03-04T01:09:45.436Z,14.60
2023-03-04T01:12:14.256Z,13.00
2023-03-04T01:14:43.151Z,14.20
2023-03-04T01:17:17.559Z,13.00
2023-03-04T01:19:45.873Z,14.40
2023-03-04T01:22:16.786Z,14.50
2023-03-04T01:24:47.248Z,14.80
2023-03-04T01:27:16.106Z,14.30
2023-03-04T01:29:45.414Z,13.30
2023-03-04T01:32:13.681Z,14.00
2023-03-04T01:34:43.966Z,13.20
2023-03-04T01:37:15.904Z,13.30
2023-03-04T01:39:44.963Z,13.50
2023-03-04T01:42:19.098Z,13.30
2023-03-04T01:44:48.402Z,12.70
2023-03-04T01:47:19.166Z,13.20
2023-03-04T01:49:49.455Z,14.40
2023-03-04T01:52:18.211Z,14.40
2023-03-04T01:54:46.413Z,16.00
2023-03-04T01:57:23.086Z,15.30
2023-03-04T02:00:32.455Z,14.70
2023-03-04T02:03:07.314Z,14.80
2023-03-04T02:05:36.472Z,14.00
2023-03-04T02:08:05.341Z,14.20
2023-03-04T02:13:07.068Z,13.50
2023-03-04T02:15:35.726Z,14.60
2023-03-04T02:18:18.809Z,15.40
2023-03-04T02:21:13.733Z,15.00
2023-03-04T02:23:49.501Z,15.50
2023-03-04T02:26:21.870Z,15.40
2023-03-04T02:28:52.976Z,16.40
2023-03-04T02:31:28.849Z,16.60
2023-03-04T02:33:58.919Z,16.70
2023-03-04T02:36:29.044Z,16.30
2023-03-04T02:39:03.466Z,15.70
2023-03-04T02:41:32.306Z,15.20
2023-03-04T02:44:02.228Z,17.10
2023-03-04T02:46:31.394Z,16.60
2023-03-04T02:49:00.152Z,16.00
2023-03-04T02:51:29.738Z,16.10
2023-03-04T02:53:58.398Z,16.00
2023-03-04T02:56:26.928Z,15.60
2023-03-04T02:58:55.316Z,17.30
2023-03-04T03:01:29.893Z,17.00
2023-03-04T03:03:58.220Z,17.30
2023-03-04T03:06:27.125Z,18.00
2023-03-04T03:08:57.268Z,19.10
2023-03-04T03:11:26.784Z,17.30
2023-03-04T03:13:56.161Z,16.20
2023-03-04T03:16:30.593Z,16.60
2023-03-04T03:18:58.817Z,17.30
2023-03-04T03:21:27.041Z,17.50
2023-03-04T03:23:55.376Z,16.90
2023-03-04T03:26:23.598Z,16.50
2023-03-04T03:28:54.353Z,19.00
2023-03-04T03:31:23.380Z,19.00
2023-03-04T03:33:59.400Z,16.70
2023-03-04T03:36:28.692Z,17.40
2023-03-04T03:38:56.962Z,17.60
2023-03-04T03:41:25.203Z,18.60
2023-03-04T03:43:53.410Z,19.90
2023-03-04T03:46:21.670Z,17.90
2023-03-04T03:48:50.161Z,19.10
2023-03-04T03:51:26.530Z,20.50
2023-03-04T03:53:55.512Z,23.50
2023-03-04T03:56:23.911Z,23.70
2023-03-04T03:58:52.077Z,23.90
2023-03-04T04:01:20.306Z,21.40
2023-03-04T04:03:48.922Z,19.00
2023-03-04T04:06:17.454Z,18.10
2023-03-04T04:08:51.120Z,18.20
2023-03-04T04:11:19.279Z,19.00
2023-03-04T04:13:47.496Z,18.10
2023-03-04T04:16:16.447Z,17.70
2023-03-04T04:18:45.091Z,18.00
2023-03-04T04:21:17.576Z,18.30
2023-03-04T04:23:46.266Z,17.70
2023-03-04T04:26:19.157Z,17.20
2023-03-04T04:28:48.391Z,17.50
2023-03-04T04:31:16.888Z,19.50
2023-03-04T04:33:46.747Z,18.00
2023-03-04T04:36:15.541Z,18.60
2023-03-04T04:38:49.673Z,17.40
2023-03-04T04:41:23.154Z,17.80
2023-03-04T04:46:20.148Z,16.60
2023-03-04T04:48:48.337Z,17.40
2023-03-04T04:51:16.568Z,18.20
2023-03-04T04:53:44.993Z,17.80
2023-03-04T04:56:16.674Z,18.20
2023-03-04T04:58:45.511Z,17.40
2023-03-04T05:01:14.416Z,17.50
2023-03-04T05:03:44.894Z,18.90
2023-03-04T05:06:13.463Z,18.00
2023-03-04T05:08:41.693Z,17.30
2023-03-04T05:11:10.068Z,17.70
2023-03-04T05:13:40.284Z,17.80
2023-03-04T05:16:09.768Z,17.20
2023-03-04T05:18:38.123Z,16.60
2023-03-04T05:21:10.007Z,15.80
2023-03-04T05:23:40.127Z,16.80
2023-03-04T05:26:08.951Z,16.00
2023-03-04T05:28:37.387Z,17.30
2023-03-04T05:31:05.827Z,16.50
2023-03-04T05:33:35.231Z,16.50
2023-03-04T05:36:04.776Z,16.50
2023-03-04T05:38:32.998Z,16.50
2023-03-04T05:41:03.519Z,15.90
2023-03-04T05:43:38.475Z,15.60
2023-03-04T05:46:07.096Z,16.40
2023-03-04T05:48:35.289Z,16.10
2023-03-04T05:51:03.861Z,16.20
2023-03-04T05:53:32.525Z,15.60
2023-03-04T05:56:06.436Z,15.60
2023-03-04T05:58:35.150Z,14.60
2023-03-04T06:01:03.707Z,16.00
2023-03-04T06:03:32.144Z,15.80
2023-03-04T06:06:00.296Z,15.90
2023-03-04T06:08:29.882Z,16.10
2023-03-04T06:10:59.220Z,16.60
2023-03-04T06:13:34.032Z,16.20
2023-03-04T06:16:03.507Z,15.30
2023-03-04T06:18:33.783Z,15.90
2023-03-04T06:21:08.663Z,16.40
2023-03-04T06:23:37.869Z,15.40
2023-03-04T06:26:09.442Z,16.80
2023-03-04T06:28:38.723Z,15.10
2023-03-04T06:31:06.952Z,14.70
2023-03-04T06:33:35.582Z,15.70
2023-03-04T06:36:04.780Z,15.00
2023-03-04T06:38:32.990Z,15.20
2023-03-04T06:41:09.068Z,14.40
2023-03-04T06:43:37.645Z,13.50
2023-03-04T06:46:07.367Z,14.30
2023-03-04T06:48:36.641Z,14.20
2023-03-04T06:51:09.350Z,16.50
2023-03-04T06:53:39.626Z,14.30
2023-03-04T06:56:16.467Z,15.30
2023-03-04T06:58:46.259Z,14.50
2023-03-04T07:01:21.810Z,16.30
2023-03-04T07:03:50.460Z,16.30
2023-03-04T07:06:20.931Z,16.20
2023-03-04T07:08:55.938Z,16.40
2023-03-04T07:11:25.467Z,16.80
2023-03-04T07:13:53.759Z,16.20
2023-03-04T07:16:23.315Z,16.20
2023-03-04T07:18:51.984Z,16.80
2023-03-04T07:21:26.024Z,17.30
2023-03-04T07:23:54.197Z,17.50
2023-03-04T07:26:22.462Z,18.40
2023-03-04T07:28:53.060Z,17.40
2023-03-04T07:31:21.448Z,19.20
2023-03-04T07:33:50.996Z,17.50
2023-03-04T07:36:20.146Z,17.10
2023-03-04T07:38:49.333Z,17.20
2023-03-04T07:41:18.225Z,16.80
2023-03-04T07:43:46.906Z,17.60
2023-03-04T07:46:15.252Z,15.90
2023-03-04T07:48:43.887Z,17.60
2023-03-04T07:51:15.162Z,18.10
2023-03-04T07:53:46.401Z,17.10
2023-03-04T07:56:16.781Z,18.50
2023-03-04T07:58:45.481Z,17.70
2023-03-04T08:01:16.000Z,18.50
2023-03-04T08:03:44.553Z,18.10
2023-03-04T08:06:14.537Z,19.90
2023-03-04T08:08:48.169Z,19.40
2023-03-04T08:11:20.992Z,18.90
2023-03-04T08:16:19.133Z,17.40
2023-03-04T08:18:49.862Z,18.70
2023-03-04T08:21:19.569Z,18.50
2023-03-04T08:23:49.398Z,19.20
2023-03-04T08:26:20.723Z,19.50
2023-03-04T08:28:49.410Z,18.50
2023-03-04T08:31:19.998Z,21.00
2023-03-04T08:33:49.733Z,18.60
2023-03-04T08:36:17.950Z,19.00
2023-03-04T08:38:47.166Z,19.80
2023-03-04T08:41:16.975Z,19.30
2023-03-04T08:43:45.181Z,19.50
2023-03-04T08:46:13.425Z,18.80
2023-03-04T08:48:42.189Z,18.50
2023-03-04T08:51:13.328Z,18.30
2023-03-04T08:53:41.753Z,17.40
2023-03-04T08:56:10.593Z,17.40
2023-03-04T08:58:39.122Z,16.80
2023-03-04T09:01:10.031Z,17.20
2023-03-04T09:03:46.090Z,17.90
2023-03-04T09:06:15.818Z,17.00
2023-03-04T09:09:09.675Z,18.20
2023-03-04T09:11:41.981Z,17.70
2023-03-04T09:14:11.275Z,17.30
2023-03-04T09:16:40.068Z,16.80
2023-03-04T09:19:08.356Z,17.80
2023-03-04T09:21:38.417Z,17.40
2023-03-04T09:24:07.068Z,17.60
2023-03-04T09:26:35.494Z,17.70
2023-03-04T09:29:04.257Z,16.40
2023-03-04T09:31:34.274Z,16.60
2023-03-04T09:34:04.105Z,16.10
2023-03-04T09:36:33.365Z,16.60
2023-03-04T09:39:07.307Z,16.00
2023-03-04T09:41:50.409Z,17.40
2023-03-04T09:44:38.514Z,15.90
2023-03-04T09:47:11.678Z,16.40
2023-03-04T09:49:41.515Z,16.70
2023-03-04T09:52:28.169Z,16.10
2023-03-04T09:55:18.609Z,16.80
2023-03-04T09:57:53.364Z,16.30
2023-03-04T10:00:25.439Z,15.40
2023-03-04T10:03:06.327Z,16.10
2023-03-04T10:05:36.704Z,16.20
2023-03-04T10:08:28.582Z,17.70
2023-03-04T10:10:59.232Z,17.00
2023-03-04T10:13:40.823Z,17.20
2023-03-04T10:16:10.004Z,17.20
2023-03-04T10:18:41.360Z,19.10
2023-03-04T10:21:42.344Z,19.60
2023-03-04T10:24:15.325Z,18.20
2023-03-04T10:26:50.674Z,18.20
2023-03-04T10:29:21.225Z,17.10
2023-03-04T10:31:50.090Z,17.50
2023-03-04T10:34:18.961Z,17.10
2023-03-04T10:36:54.950Z,16.50
2023-03-04T10:39:39.657Z,20.20
2023-03-04T10:42:14.572Z,19.50
2023-03-04T10:44:56.959Z,19.10
2023-03-04T10:47:29.417Z,21.80
2023-03-04T10:50:00.971Z,19.50
2023-03-04T10:52:38.840Z,21.50
2023-03-04T10:55:17.160Z,19.90
2023-03-04T10:57:48.680Z,18.40
2023-03-04T11:00:32.233Z,19.70
2023-03-04T11:03:36.180Z,19.70
2023-03-04T11:06:24.646Z,16.60
2023-03-04T11:08:58.435Z,14.20
2023-03-04T11:11:48.411Z,13.90
2023-03-04T11:14:24.647Z,13.10
2023-03-04T11:17:01.061Z,14.10
2023-03-04T11:19:38.672Z,12.50
2023-03-04T11:22:07.691Z,13.10
2023-03-04T11:24:36.401Z,13.80
2023-03-04T11:27:50.518Z,13.40
2023-03-04T11:30:48.397Z,12.50
2023-03-04T11:33:29.535Z,13.10
2023-03-04T11:36:10.169Z,12.70
2023-03-04T11:38:47.985Z,12.80
2023-03-04T11:41:39.907Z,13.10
2023-03-04T11:44:09.025Z,11.80
2023-03-04T11:46:52.799Z,12.20
2023-03-04T11:50:00.553Z,11.90
2023-03-04T11:52:51.640Z,11.30
2023-03-04T11:55:22.604Z,11.40
2023-03-04T12:00:36.091Z,11.40
2023-03-04T12:03:42.485Z,11.60
2023-03-04T12:06:38.948Z,12.50
2023-03-04T12:09:31.697Z,11.40
2023-03-04T12:12:06.255Z,13.30
2023-03-04T12:14:59.206Z,14.50
2023-03-04T12:17:39.574Z,14.50
2023-03-04T12:20:40.200Z,13.20
2023-03-04T12:23:22.469Z,12.90
2023-03-04T12:25:59.616Z,12.00
2023-03-04T12:28:53.149Z,13.40
2023-03-04T12:31:24.418Z,13.10
2023-03-04T12:34:14.450Z,13.10
2023-03-04T12:37:17.886Z,12.70
2023-03-04T12:40:20.638Z,13.20
2023-03-04T12:43:04.143Z,12.50
2023-03-04T12:45:43.893Z,12.30
2023-03-04T12:49:02.184Z,13.10
2023-03-04T12:51:39.604Z,13.40
2023-03-04T12:54:24.142Z,14.20
2023-03-04T12:56:55.868Z,14.70
2023-03-04T12:59:24.293Z,13.60
2023-03-04T13:02:14.548Z,12.60
2023-03-04T13:05:04.928Z,13.10
2023-03-04T13:07:50.859Z,12.80
2023-03-04T13:10:23.580Z,13.30
2023-03-04T13:12:54.537Z,12.80
2023-03-04T13:15:43.303Z,13.00
2023-03-04T13:18:36.063Z,12.40
2023-03-04T13:21:11.909Z,13.10
2023-03-04T13:23:40.821Z,13.70
2023-03-04T13:26:32.218Z,12.10
2023-03-04T13:29:18.963Z,11.50
2023-03-04T13:32:00.809Z,12.70
2023-03-04T13:34:49.251Z,12.40
2023-03-04T13:37:35.084Z,12.50
2023-03-04T13:40:47.674Z,13.30
2023-03-04T13:43:28.363Z,13.60
2023-03-04T13:45:56.699Z,13.10
2023-03-04T13:48:36.505Z,14.00
2023-03-04T13:51:04.852Z,13.00
2023-03-04T13:53:44.810Z,13.20
2023-03-04T13:56:29.320Z,12.90
2023-03-04T13:59:19.319Z,13.50
2023-03-04T14:01:47.994Z,13.50
2023-03-04T14:04:22.790Z,14.50
2023-03-04T14:06:52.715Z,15.40
2023-03-04T14:09:27.332Z,14.00
2023-03-04T14:11:57.314Z,13.70
2023-03-04T14:14:31.430Z,13.20
2023-03-04T14:17:05.096Z,12.80
2023-03-04T14:19:38.608Z,12.80
2023-03-04T14:22:23.895Z,13.80
2023-03-04T14:25:23.128Z,13.50
2023-03-04T14:28:04.558Z,13.10
2023-03-04T14:30:42.846Z,12.60
2023-03-04T14:33:18.342Z,12.30
2023-03-04T14:35:49.705Z,11.70
2023-03-04T14:38:23.929Z,12.60
2023-03-04T14:40:56.983Z,11.60
2023-03-04T14:43:26.565Z,12.10
2023-03-04T14:45:56.524Z,11.90
2023-03-04T14:48:31.022Z,12.00
2023-03-04T14:51:30.271Z,12.60
2023-03-04T14:54:32.140Z,11.70
2023-03-04T14:57:21.674Z,11.10
2023-03-04T14:59:50.175Z,12.10
2023-03-04T15:02:35.338Z,12.40
2023-03-04T15:05:31.389Z,12.20
2023-03-04T15:08:07.029Z,11.80
2023-03-04T15:10:37.171Z,10.80
2023-03-04T15:13:07.573Z,11.90
2023-03-04T15:15:40.648Z,11.40
2023-03-04T15:18:21.220Z,10.90
2023-03-04T15:21:05.881Z,11.00
2023-03-04T15:23:34.151Z,10.90
2023-03-04T15:26:04.710Z,11.60
2023-03-04T15:28:37.775Z,10.90
2023-03-04T15:31:06.140Z,10.30
2023-03-04T15:33:39.316Z,11.20
2023-03-04T15:36:11.133Z,11.00
2023-03-04T15:38:48.714Z,10.70
2023-03-04T15:41:25.891Z,10.80
2023-03-04T15:43:54.866Z,10.60
2023-03-04T15:46:23.473Z,11.40
2023-03-04T15:48:52.723Z,11.00
2023-03-04T15:51:22.385Z,11.20
2023-03-04T15:53:55.968Z,11.10
2023-03-04T15:56:32.104Z,12.00
2023-03-04T15:59:14.943Z,10.80
2023-03-04T16:01:51.157Z,11.60
2023-03-04T16:04:20.398Z,11.40
2023-03-04T16:06:49.587Z,10.40
2023-03-04T16:09:20.092Z,11.40
2023-03-04T16:11:49.058Z,11.40
2023-03-04T16:14:19.084Z,10.90
2023-03-04T16:16:48.143Z,10.80
2023-03-04T16:19:19.941Z,8.30
2023-03-04T16:21:50.971Z,10.40
2023-03-04T16:24:25.062Z,9.60
2023-03-04T16:26:54.214Z,9.40
2023-03-04T16:29:24.420Z,9.30
2023-03-04T16:31:54.401Z,9.70
2023-03-04T16:34:22.860Z,9.60
2023-03-04T16:36:51.551Z,9.90
2023-03-04T16:39:25.915Z,9.40
2023-03-04T16:41:58.483Z,8.60
2023-03-04T16:44:27.274Z,9.40
2023-03-04T16:47:02.772Z,9.00
2023-03-04T16:49:32.337Z,8.60
2023-03-04T16:52:01.006Z,9.10
2023-03-04T16:54:31.961Z,8.60
2023-03-04T16:57:00.882Z,8.70
2023-03-04T16:59:29.970Z,8.70
2023-03-04T17:01:58.631Z,8.60
2023-03-04T17:04:29.401Z,9.00
2023-03-04T17:06:59.082Z,8.20
2023-03-04T17:09:27.676Z,8.60
2023-03-04T17:11:59.555Z,8.70
2023-03-04T17:14:31.039Z,8.40
2023-03-04T17:17:00.673Z,8.60
2023-03-04T17:19:29.847Z,8.20
2023-03-04T17:21:59.489Z,9.10
2023-03-04T17:24:28.005Z,8.10
2023-03-04T17:26:58.339Z,8.00
2023-03-04T17:29:26.734Z,8.70
2023-03-04T17:31:54.966Z,8.40
2023-03-04T17:34:23.230Z,8.70
2023-03-04T17:36:51.573Z,10.00
2023-03-04T17:39:20.021Z,9.30
2023-03-04T17:41:51.366Z,11.10
2023-03-04T17:44:24.778Z,11.60
2023-03-04T17:46:53.105Z,12.70
2023-03-04T17:49:21.693Z,11.60
2023-03-04T17:51:50.135Z,12.30
2023-03-04T17:54:18.647Z,11.90
2023-03-04T17:56:47.015Z,12.10
2023-03-04T17:59:16.130Z,11.60
2023-03-04T18:01:47.813Z,12.10
2023-03-04T18:04:16.874Z,11.90
2023-03-04T18:06:46.497Z,10.90
2023-03-04T18:09:14.669Z,10.40
2023-03-04T18:11:43.384Z,11.50
2023-03-04T18:14:13.079Z,11.40
2023-03-04T18:16:44.388Z,10.60
2023-03-04T18:19:13.806Z,10.70
2023-03-04T18:21:44.487Z,10.00
2023-03-04T18:24:12.921Z,10.70
2023-03-04T18:26:41.105Z,10.30
2023-03-04T18:29:10.865Z,9.20
2023-03-04T18:31:39.786Z,9.50
2023-03-04T18:34:08.052Z,9.50
2023-03-04T18:36:36.601Z,9.80
2023-03-04T18:39:07.586Z,9.50
2023-03-04T18:41:36.466Z,10.10
2023-03-04T18:44:06.054Z,10.40
2023-03-04T18:46:55.621Z,10.50
2023-03-04T18:49:24.269Z,9.90
2023-03-04T18:51:52.482Z,10.30
2023-03-04T18:54:21.229Z,10.50
2023-03-04T18:56:55.814Z,10.30
2023-03-04T18:59:31.503Z,9.80
2023-03-04T19:02:01.761Z,11.00
2023-03-04T19:04:30.111Z,10.00
2023-03-04T19:07:00.442Z,10.50
2023-03-04T19:09:28.891Z,9.70
2023-03-04T19:11:57.112Z,10.00
2023-03-04T19:14:25.678Z,10.80
2023-03-04T19:16:54.646Z,10.30
2023-03-04T19:19:23.010Z,11.50
2023-03-04T19:21:51.263Z,9.10
2023-03-04T19:24:19.992Z,10.50
2023-03-04T19:26:54.782Z,10.70
2023-03-04T19:29:23.157Z,9.60
2023-03-04T19:31:51.335Z,9.30
2023-03-04T19:34:19.717Z,10.50
2023-03-04T19:36:48.143Z,11.20
2023-03-04T19:39:18.645Z,9.90
2023-03-04T19:41:47.614Z,9.60
2023-03-04T19:44:17.447Z,9.60
2023-03-04T19:46:46.163Z,9.80
2023-03-04T19:49:14.473Z,10.50
2023-03-04T19:51:43.250Z,9.30
2023-03-04T19:54:11.567Z,9.60
2023-03-04T19:56:40.754Z,9.40
2023-03-04T19:59:09.250Z,9.40
2023-03-04T20:01:40.741Z,11.20
2023-03-04T20:04:13.862Z,9.70
2023-03-04T20:06:45.942Z,10.80
2023-03-04T20:09:14.528Z,9.70
2023-03-04T20:11:56.683Z,9.70
2023-03-04T20:14:28.202Z,10.10
2023-03-04T20:17:01.582Z,9.50
2023-03-04T20:19:30.432Z,10.40
2023-03-04T20:21:58.810Z,10.80
2023-03-04T20:24:27.555Z,9.70
2023-03-04T20:26:55.836Z,10.20
2023-03-04T20:29:26.926Z,11.00
2023-03-04T20:31:55.102Z,9.40
2023-03-04T20:34:25.606Z,10.20
2023-03-04T20:36:54.130Z,9.40
2023-03-04T20:39:29.182Z,9.90
2023-03-04T20:41:58.733Z,9.40
2023-03-04T20:47:01.908Z,9.40
2023-03-04T20:49:30.580Z,10.20
2023-03-04T20:52:06.429Z,10.10
2023-03-04T20:54:36.086Z,10.40
2023-03-04T20:57:08.104Z,11.90
2023-03-04T20:59:38.394Z,11.40
2023-03-04T21:02:14.573Z,11.40
2023-03-04T21:04:44.060Z,9.30
2023-03-04T21:07:12.388Z,7.70
2023-03-04T21:09:44.841Z,7.40
2023-03-04T21:12:14.613Z,7.30
2023-03-04T21:14:45.471Z,6.00
2023-03-04T21:17:14.310Z,5.80
2023-03-04T21:19:43.614Z,4.90
2023-03-04T21:22:16.569Z,4.00
2023-03-04T21:24:52.438Z,3.60
2023-03-04T21:27:22.273Z,3.50
2023-03-04T21:29:50.640Z,3.00
2023-03-04T21:32:25.793Z,2.40
2023-03-04T21:34:54.987Z,2.10
2023-03-04T21:37:25.160Z,2.40
2023-03-04T21:39:55.075Z,2.40
2023-03-04T21:42:23.753Z,2.10
2023-03-04T21:44:57.387Z,1.40
2023-03-04T21:47:26.606Z,1.80
2023-03-04T21:49:54.846Z,1.40
2023-03-04T21:52:23.101Z,1.70
2023-03-04T21:54:51.319Z,1.60
2023-03-04T21:57:19.733Z,1.70
2023-03-04T21:59:48.489Z,1.20
2023-03-04T22:02:21.345Z,0.90
2023-03-04T22:04:50.205Z,0.90
2023-03-04T22:07:19.150Z,1.30
2023-03-04T22:09:47.936Z,1.00
2023-03-04T22:12:19.707Z,0.80
2023-03-04T22:14:48.217Z,0.80
2023-03-04T22:17:16.609Z,1.20
2023-03-04T22:19:45.170Z,1.10
2023-03-04T22:22:13.396Z,1.80
2023-03-04T22:24:42.693Z,2.00
2023-03-04T22:27:10.888Z,1.80
2023-03-04T22:29:42.612Z,1.60
2023-03-04T22:32:10.987Z,1.80
2023-03-04T22:34:40.529Z,2.10
2023-03-04T22:37:09.115Z,1.70
2023-03-04T22:39:37.314Z,2.20
2023-03-04T22:42:05.745Z,1.80
2023-03-04T22:44:34.678Z,2.80
2023-03-04T22:47:04.269Z,2.20
2023-03-04T22:49:33.473Z,1.80
2023-03-04T22:52:07.424Z,1.60
2023-03-04T22:54:35.600Z,2.30
2023-03-04T22:57:03.853Z,1.70
2023-03-04T22:59:32.174Z,2.40
2023-03-04T23:02:04.955Z,2.00
2023-03-04T23:04:33.630Z,1.60
2023-03-04T23:07:02.032Z,1.30
2023-03-04T23:09:30.680Z,2.30
2023-03-04T23:11:58.877Z,2.30
2023-03-04T23:14:27.275Z,1.60
2023-03-04T23:16:56.306Z,1.40
2023-03-04T23:19:26.051Z,1.60
2023-03-04T23:21:57.297Z,1.50
2023-03-04T23:24:26.832Z,0.90
2023-03-04T23:26:55.121Z,1.20
2023-03-04T23:29:23.328Z,1.20
2023-03-04T23:31:51.870Z,1.10
2023-03-04T23:34:26.232Z,0.80
2023-03-04T23:36:54.455Z,1.00
2023-03-04T23:39:22.835Z,1.00
2023-03-04T23:41:51.136Z,1.60
2023-03-04T23:44:19.638Z,1.40
2023-03-04T23:46:47.844Z,1.40
2023-03-04T23:49:18.027Z,1.40
2023-03-04T23:51:46.404Z,1.20
2023-03-04T23:54:14.800Z,1.00
2023-03-04T23:56:43.433Z,1.00
2023-03-04T23:59:12.501Z,0.90
